sensor_id;sensor_type;location;lat;lon;timestamp;P1;durP1;ratioP1;P2;durP2;ratioP2
6723;SDS011;3399;52.530;13.304;2022-10-14T00:01:28;23.50;;;19.00;;
6723;SDS011;3399;52.530;13.304;2022-10-14T00:03:57;23.07;;;18.00;;
6723;SDS011;3399;52.530;13.304;2022-10-14T00:06:25;24.13;;;18.30;;
6723;SDS011;3399;52.530;13.304;2022-10-14T00:08:53;23.97;;;18.10;;
6723;SDS011;3399;52.530;13.304;2022-10-14T00:11:20;20.83;;;17.97;;
6723;SDS011;3399;52.530;13.304;2022-10-14T00:13:48;21.97;;;17.77;;
6723;SDS011;3399;52.530;13.304;2022-10-14T00:16:15;22.87;;;17.37;;
6723;SDS011;3399;52.530;13.304;2022-10-14T00:18:46;20.47;;;18.37;;
6723;SDS011;3399;52.530;13.304;2022-10-14T00:21:12;20.70;;;18.37;;
6723;SDS011;3399;52.530;13.304;2022-10-14T00:23:37;22.53;;;18.30;;
6723;SDS011;3399;52.530;13.304;2022-10-14T00:26:03;27.17;;;19.50;;
6723;SDS011;3399;52.530;13.304;2022-10-14T00:28:29;23.17;;;17.43;;
6723;SDS011;3399;52.530;13.304;2022-10-14T00:30:55;21.57;;;16.97;;
6723;SDS011;3399;52.530;13.304;2022-10-14T00:33:22;23.47;;;18.07;;
6723;SDS011;3399;52.530;13.304;2022-10-14T00:35:59;24.33;;;17.17;;
6723;SDS011;3399;52.530;13.304;2022-10-14T00:38:26;21.77;;;17.97;;
6723;SDS011;3399;52.530;13.304;2022-10-14T00:40:52;21.57;;;17.00;;
6723;SDS011;3399;52.530;13.304;2022-10-14T00:43:19;24.40;;;18.47;;
6723;SDS011;3399;52.530;13.304;2022-10-14T00:45:45;22.73;;;18.47;;
6723;SDS011;3399;52.530;13.304;2022-10-14T00:48:11;24.17;;;17.63;;
6723;SDS011;3399;52.530;13.304;2022-10-14T00:50:37;21.80;;;17.10;;
6723;SDS011;3399;52.530;13.304;2022-10-14T00:53:07;18.70;;;16.30;;
6723;SDS011;3399;52.530;13.304;2022-10-14T00:55:34;20.20;;;16.00;;
6723;SDS011;3399;52.530;13.304;2022-10-14T00:58:02;22.20;;;17.20;;
6723;SDS011;3399;52.530;13.304;2022-10-14T01:00:28;23.03;;;16.57;;
6723;SDS011;3399;52.530;13.304;2022-10-14T01:02:54;19.77;;;16.13;;
6723;SDS011;3399;52.530;13.304;2022-10-14T01:05:21;26.37;;;18.90;;
6723;SDS011;3399;52.530;13.304;2022-10-14T01:12:58;20.80;;;17.13;;
6723;SDS011;3399;52.530;13.304;2022-10-14T01:21:36;20.30;;;17.27;;
6723;SDS011;3399;52.530;13.304;2022-10-14T01:26:58;19.00;;;15.17;;
6723;SDS011;3399;52.530;13.304;2022-10-14T01:30:12;20.07;;;15.73;;
6723;SDS011;3399;52.530;13.304;2022-10-14T01:33:02;23.57;;;17.00;;
6723;SDS011;3399;52.530;13.304;2022-10-14T01:38:21;18.27;;;16.13;;
6723;SDS011;3399;52.530;13.304;2022-10-14T01:43:34;19.83;;;16.77;;
6723;SDS011;3399;52.530;13.304;2022-10-14T01:46:03;19.40;;;16.20;;
6723;SDS011;3399;52.530;13.304;2022-10-14T01:48:31;18.40;;;15.13;;
6723;SDS011;3399;52.530;13.304;2022-10-14T01:51:01;19.97;;;14.60;;
6723;SDS011;3399;52.530;13.304;2022-10-14T01:53:31;21.90;;;16.27;;
6723;SDS011;3399;52.530;13.304;2022-10-14T01:56:07;18.37;;;16.23;;
6723;SDS011;3399;52.530;13.304;2022-10-14T01:58:35;18.13;;;15.97;;
6723;SDS011;3399;52.530;13.304;2022-10-14T02:01:03;20.67;;;16.47;;
6723;SDS011;3399;52.530;13.304;2022-10-14T02:03:37;21.97;;;17.67;;
6723;SDS011;3399;52.530;13.304;2022-10-14T02:06:09;18.60;;;15.20;;
6723;SDS011;3399;52.530;13.304;2022-10-14T02:08:51;22.37;;;18.23;;
6723;SDS011;3399;52.530;13.304;2022-10-14T02:11:54;19.07;;;16.10;;
6723;SDS011;3399;52.530;13.304;2022-10-14T02:14:43;17.27;;;15.50;;
6723;SDS011;3399;52.530;13.304;2022-10-14T02:17:29;19.77;;;16.23;;
6723;SDS011;3399;52.530;13.304;2022-10-14T02:20:13;20.73;;;17.10;;
6723;SDS011;3399;52.530;13.304;2022-10-14T02:22:59;19.67;;;15.97;;
6723;SDS011;3399;52.530;13.304;2022-10-14T02:25:39;21.00;;;16.23;;
6723;SDS011;3399;52.530;13.304;2022-10-14T02:28:08;20.80;;;16.57;;
6723;SDS011;3399;52.530;13.304;2022-10-14T02:30:37;19.77;;;16.80;;
6723;SDS011;3399;52.530;13.304;2022-10-14T02:33:07;18.30;;;16.30;;
6723;SDS011;3399;52.530;13.304;2022-10-14T02:35:33;20.93;;;17.30;;
6723;SDS011;3399;52.530;13.304;2022-10-14T02:38:00;21.33;;;16.83;;
6723;SDS011;3399;52.530;13.304;2022-10-14T02:40:34;21.97;;;17.70;;
6723;SDS011;3399;52.530;13.304;2022-10-14T02:43:03;20.73;;;16.63;;
6723;SDS011;3399;52.530;13.304;2022-10-14T02:45:32;23.77;;;18.90;;
6723;SDS011;3399;52.530;13.304;2022-10-14T02:47:58;21.80;;;17.03;;
6723;SDS011;3399;52.530;13.304;2022-10-14T02:50:23;18.83;;;16.60;;
6723;SDS011;3399;52.530;13.304;2022-10-14T02:52:48;22.33;;;16.27;;
6723;SDS011;3399;52.530;13.304;2022-10-14T02:55:14;20.33;;;15.20;;
6723;SDS011;3399;52.530;13.304;2022-10-14T02:57:39;19.17;;;15.00;;
6723;SDS011;3399;52.530;13.304;2022-10-14T03:00:06;20.37;;;15.83;;
6723;SDS011;3399;52.530;13.304;2022-10-14T03:02:32;20.93;;;16.87;;
6723;SDS011;3399;52.530;13.304;2022-10-14T03:04:57;20.00;;;15.97;;
6723;SDS011;3399;52.530;13.304;2022-10-14T03:07:23;18.30;;;15.03;;
6723;SDS011;3399;52.530;13.304;2022-10-14T03:09:49;18.83;;;15.50;;
6723;SDS011;3399;52.530;13.304;2022-10-14T03:12:14;17.97;;;15.70;;
6723;SDS011;3399;52.530;13.304;2022-10-14T03:14:40;18.23;;;15.17;;
6723;SDS011;3399;52.530;13.304;2022-10-14T03:17:06;20.27;;;15.37;;
6723;SDS011;3399;52.530;13.304;2022-10-14T03:19:32;17.37;;;14.83;;
6723;SDS011;3399;52.530;13.304;2022-10-14T03:21:58;18.90;;;15.20;;
6723;SDS011;3399;52.530;13.304;2022-10-14T03:24:23;21.03;;;15.47;;
6723;SDS011;3399;52.530;13.304;2022-10-14T03:26:49;16.90;;;15.10;;
6723;SDS011;3399;52.530;13.304;2022-10-14T03:29:14;15.87;;;14.17;;
6723;SDS011;3399;52.530;13.304;2022-10-14T03:31:40;18.93;;;14.83;;
6723;SDS011;3399;52.530;13.304;2022-10-14T03:34:05;18.13;;;15.37;;
6723;SDS011;3399;52.530;13.304;2022-10-14T03:36:31;16.70;;;15.03;;
6723;SDS011;3399;52.530;13.304;2022-10-14T03:38:56;17.80;;;15.67;;
6723;SDS011;3399;52.530;13.304;2022-10-14T03:41:22;18.13;;;14.77;;
6723;SDS011;3399;52.530;13.304;2022-10-14T03:43:48;20.07;;;14.43;;
6723;SDS011;3399;52.530;13.304;2022-10-14T03:46:13;17.33;;;14.73;;
6723;SDS011;3399;52.530;13.304;2022-10-14T03:48:40;16.70;;;14.10;;
6723;SDS011;3399;52.530;13.304;2022-10-14T03:51:05;15.53;;;13.90;;
6723;SDS011;3399;52.530;13.304;2022-10-14T03:53:31;20.83;;;14.03;;
6723;SDS011;3399;52.530;13.304;2022-10-14T03:56:03;17.53;;;14.77;;
6723;SDS011;3399;52.530;13.304;2022-10-14T03:58:32;20.30;;;16.37;;
6723;SDS011;3399;52.530;13.304;2022-10-14T04:00:58;17.13;;;15.23;;
6723;SDS011;3399;52.530;13.304;2022-10-14T04:03:24;18.37;;;15.40;;
6723;SDS011;3399;52.530;13.304;2022-10-14T04:05:50;20.10;;;15.40;;
6723;SDS011;3399;52.530;13.304;2022-10-14T04:08:15;20.43;;;15.27;;
6723;SDS011;3399;52.530;13.304;2022-10-14T04:10:41;22.50;;;15.73;;
6723;SDS011;3399;52.530;13.304;2022-10-14T04:13:08;18.40;;;16.33;;
6723;SDS011;3399;52.530;13.304;2022-10-14T04:15:35;18.43;;;15.33;;
6723;SDS011;3399;52.530;13.304;2022-10-14T04:18:01;18.57;;;15.53;;
6723;SDS011;3399;52.530;13.304;2022-10-14T04:20:26;20.73;;;16.03;;
6723;SDS011;3399;52.530;13.304;2022-10-14T04:22:52;21.47;;;17.60;;
6723;SDS011;3399;52.530;13.304;2022-10-14T04:25:18;22.40;;;16.93;;
6723;SDS011;3399;52.530;13.304;2022-10-14T04:27:44;17.43;;;14.23;;
6723;SDS011;3399;52.530;13.304;2022-10-14T04:30:09;20.50;;;15.50;;
6723;SDS011;3399;52.530;13.304;2022-10-14T04:32:35;20.70;;;16.70;;
6723;SDS011;3399;52.530;13.304;2022-10-14T04:35:00;20.77;;;16.00;;
6723;SDS011;3399;52.530;13.304;2022-10-14T04:37:26;20.87;;;17.03;;
6723;SDS011;3399;52.530;13.304;2022-10-14T04:39:53;22.87;;;17.13;;
6723;SDS011;3399;52.530;13.304;2022-10-14T04:42:18;21.47;;;16.47;;
6723;SDS011;3399;52.530;13.304;2022-10-14T04:44:44;19.87;;;16.07;;
6723;SDS011;3399;52.530;13.304;2022-10-14T04:47:09;17.07;;;15.33;;
6723;SDS011;3399;52.530;13.304;2022-10-14T04:49:35;17.77;;;15.87;;
6723;SDS011;3399;52.530;13.304;2022-10-14T04:52:00;24.67;;;15.77;;
6723;SDS011;3399;52.530;13.304;2022-10-14T04:54:26;18.90;;;16.40;;
6723;SDS011;3399;52.530;13.304;2022-10-14T04:56:51;19.33;;;16.40;;
6723;SDS011;3399;52.530;13.304;2022-10-14T04:59:17;17.73;;;15.23;;
6723;SDS011;3399;52.530;13.304;2022-10-14T05:01:42;20.00;;;15.90;;
6723;SDS011;3399;52.530;13.304;2022-10-14T05:04:08;20.57;;;15.77;;
6723;SDS011;3399;52.530;13.304;2022-10-14T05:06:33;22.73;;;16.33;;
6723;SDS011;3399;52.530;13.304;2022-10-14T05:08:59;19.33;;;15.33;;
6723;SDS011;3399;52.530;13.304;2022-10-14T05:11:24;18.47;;;15.80;;
6723;SDS011;3399;52.530;13.304;2022-10-14T05:13:50;20.90;;;16.43;;
6723;SDS011;3399;52.530;13.304;2022-10-14T05:16:15;20.03;;;16.93;;
6723;SDS011;3399;52.530;13.304;2022-10-14T05:18:41;22.10;;;14.23;;
6723;SDS011;3399;52.530;13.304;2022-10-14T05:21:06;17.13;;;14.70;;
6723;SDS011;3399;52.530;13.304;2022-10-14T05:23:32;20.73;;;15.70;;
6723;SDS011;3399;52.530;13.304;2022-10-14T05:25:57;18.27;;;15.03;;
6723;SDS011;3399;52.530;13.304;2022-10-14T05:28:23;18.80;;;15.10;;
6723;SDS011;3399;52.530;13.304;2022-10-14T05:30:49;20.60;;;16.20;;
6723;SDS011;3399;52.530;13.304;2022-10-14T05:33:14;17.73;;;14.37;;
6723;SDS011;3399;52.530;13.304;2022-10-14T05:35:40;16.83;;;14.97;;
6723;SDS011;3399;52.530;13.304;2022-10-14T05:38:07;16.50;;;13.50;;
6723;SDS011;3399;52.530;13.304;2022-10-14T05:40:32;22.03;;;16.07;;
6723;SDS011;3399;52.530;13.304;2022-10-14T05:42:58;14.67;;;13.17;;
6723;SDS011;3399;52.530;13.304;2022-10-14T05:45:23;17.03;;;14.53;;
6723;SDS011;3399;52.530;13.304;2022-10-14T05:47:50;20.97;;;15.00;;
6723;SDS011;3399;52.530;13.304;2022-10-14T05:50:16;18.57;;;15.17;;
6723;SDS011;3399;52.530;13.304;2022-10-14T05:52:41;21.13;;;15.17;;
6723;SDS011;3399;52.530;13.304;2022-10-14T05:55:07;19.33;;;14.40;;
6723;SDS011;3399;52.530;13.304;2022-10-14T05:57:33;20.17;;;14.97;;
6723;SDS011;3399;52.530;13.304;2022-10-14T05:59:59;17.57;;;14.80;;
6723;SDS011;3399;52.530;13.304;2022-10-14T06:02:25;21.73;;;16.17;;
6723;SDS011;3399;52.530;13.304;2022-10-14T06:04:50;21.77;;;15.43;;
6723;SDS011;3399;52.530;13.304;2022-10-14T06:07:16;19.70;;;16.43;;
6723;SDS011;3399;52.530;13.304;2022-10-14T06:09:41;16.93;;;14.60;;
6723;SDS011;3399;52.530;13.304;2022-10-14T06:12:07;21.33;;;15.83;;
6723;SDS011;3399;52.530;13.304;2022-10-14T06:14:33;23.37;;;15.73;;
6723;SDS011;3399;52.530;13.304;2022-10-14T06:16:59;15.63;;;14.13;;
6723;SDS011;3399;52.530;13.304;2022-10-14T06:19:24;19.63;;;15.83;;
6723;SDS011;3399;52.530;13.304;2022-10-14T06:21:50;18.93;;;15.50;;
6723;SDS011;3399;52.530;13.304;2022-10-14T06:24:15;22.80;;;14.90;;
6723;SDS011;3399;52.530;13.304;2022-10-14T06:26:41;20.87;;;15.63;;
6723;SDS011;3399;52.530;13.304;2022-10-14T06:29:06;15.17;;;13.47;;
6723;SDS011;3399;52.530;13.304;2022-10-14T06:31:32;21.30;;;15.63;;
6723;SDS011;3399;52.530;13.304;2022-10-14T06:33:57;15.90;;;14.07;;
6723;SDS011;3399;52.530;13.304;2022-10-14T06:36:23;18.73;;;14.87;;
6723;SDS011;3399;52.530;13.304;2022-10-14T06:38:48;18.33;;;15.00;;
6723;SDS011;3399;52.530;13.304;2022-10-14T06:41:14;18.40;;;13.73;;
6723;SDS011;3399;52.530;13.304;2022-10-14T06:43:39;17.83;;;14.50;;
6723;SDS011;3399;52.530;13.304;2022-10-14T06:46:05;17.67;;;15.77;;
6723;SDS011;3399;52.530;13.304;2022-10-14T06:48:31;21.53;;;15.47;;
6723;SDS011;3399;52.530;13.304;2022-10-14T06:50:59;16.93;;;14.77;;
6723;SDS011;3399;52.530;13.304;2022-10-14T06:53:26;17.93;;;14.70;;
6723;SDS011;3399;52.530;13.304;2022-10-14T06:55:56;18.93;;;15.07;;
6723;SDS011;3399;52.530;13.304;2022-10-14T06:58:26;18.73;;;14.77;;
6723;SDS011;3399;52.530;13.304;2022-10-14T07:00:52;20.20;;;15.40;;
6723;SDS011;3399;52.530;13.304;2022-10-14T07:03:17;16.90;;;15.20;;
6723;SDS011;3399;52.530;13.304;2022-10-14T07:05:43;18.00;;;15.60;;
6723;SDS011;3399;52.530;13.304;2022-10-14T07:08:08;18.00;;;14.83;;
6723;SDS011;3399;52.530;13.304;2022-10-14T07:10:35;16.47;;;13.53;;
6723;SDS011;3399;52.530;13.304;2022-10-14T07:13:00;18.73;;;15.43;;
6723;SDS011;3399;52.530;13.304;2022-10-14T07:15:26;20.23;;;15.23;;
6723;SDS011;3399;52.530;13.304;2022-10-14T07:17:51;17.20;;;14.17;;
6723;SDS011;3399;52.530;13.304;2022-10-14T07:20:17;17.50;;;14.03;;
6723;SDS011;3399;52.530;13.304;2022-10-14T07:22:42;16.80;;;13.63;;
6723;SDS011;3399;52.530;13.304;2022-10-14T07:25:08;19.47;;;14.83;;
6723;SDS011;3399;52.530;13.304;2022-10-14T07:27:34;19.47;;;13.60;;
6723;SDS011;3399;52.530;13.304;2022-10-14T07:29:59;16.77;;;14.17;;
6723;SDS011;3399;52.530;13.304;2022-10-14T07:32:25;16.93;;;14.67;;
6723;SDS011;3399;52.530;13.304;2022-10-14T07:34:51;16.50;;;14.73;;
6723;SDS011;3399;52.530;13.304;2022-10-14T07:37:16;16.50;;;14.70;;
6723;SDS011;3399;52.530;13.304;2022-10-14T07:39:42;19.40;;;14.30;;
6723;SDS011;3399;52.530;13.304;2022-10-14T07:42:07;15.77;;;14.03;;
6723;SDS011;3399;52.530;13.304;2022-10-14T07:44:33;19.03;;;14.40;;
6723;SDS011;3399;52.530;13.304;2022-10-14T07:46:58;18.73;;;12.97;;
6723;SDS011;3399;52.530;13.304;2022-10-14T07:49:25;19.90;;;14.00;;
6723;SDS011;3399;52.530;13.304;2022-10-14T07:51:51;17.13;;;13.57;;
6723;SDS011;3399;52.530;13.304;2022-10-14T07:54:20;19.80;;;15.00;;
6723;SDS011;3399;52.530;13.304;2022-10-14T07:56:47;16.30;;;13.50;;
6723;SDS011;3399;52.530;13.304;2022-10-14T07:59:13;18.20;;;13.93;;
6723;SDS011;3399;52.530;13.304;2022-10-14T08:01:39;18.13;;;14.70;;
6723;SDS011;3399;52.530;13.304;2022-10-14T08:04:09;20.77;;;14.07;;
6723;SDS011;3399;52.530;13.304;2022-10-14T08:06:35;17.17;;;12.90;;
6723;SDS011;3399;52.530;13.304;2022-10-14T08:09:02;19.37;;;15.47;;
6723;SDS011;3399;52.530;13.304;2022-10-14T08:11:31;20.67;;;14.23;;
6723;SDS011;3399;52.530;13.304;2022-10-14T08:13:58;19.53;;;16.70;;
6723;SDS011;3399;52.530;13.304;2022-10-14T08:16:24;19.10;;;15.77;;
6723;SDS011;3399;52.530;13.304;2022-10-14T08:18:55;18.73;;;16.73;;
6723;SDS011;3399;52.530;13.304;2022-10-14T08:21:23;21.13;;;15.47;;
6723;SDS011;3399;52.530;13.304;2022-10-14T08:23:49;20.90;;;15.50;;
6723;SDS011;3399;52.530;13.304;2022-10-14T08:26:34;17.60;;;14.50;;
6723;SDS011;3399;52.530;13.304;2022-10-14T08:29:03;16.40;;;13.77;;
6723;SDS011;3399;52.530;13.304;2022-10-14T08:31:30;17.07;;;14.53;;
6723;SDS011;3399;52.530;13.304;2022-10-14T08:33:56;20.80;;;15.60;;
6723;SDS011;3399;52.530;13.304;2022-10-14T08:36:22;17.10;;;14.13;;
6723;SDS011;3399;52.530;13.304;2022-10-14T08:38:49;18.50;;;14.40;;
6723;SDS011;3399;52.530;13.304;2022-10-14T08:41:32;17.10;;;15.40;;
6723;SDS011;3399;52.530;13.304;2022-10-14T08:44:26;17.97;;;13.90;;
6723;SDS011;3399;52.530;13.304;2022-10-14T08:47:01;22.80;;;14.67;;
6723;SDS011;3399;52.530;13.304;2022-10-14T08:58:01;20.00;;;15.20;;
6723;SDS011;3399;52.530;13.304;2022-10-14T09:00:36;17.37;;;15.13;;
6723;SDS011;3399;52.530;13.304;2022-10-14T09:03:10;14.87;;;13.27;;
6723;SDS011;3399;52.530;13.304;2022-10-14T09:06:01;15.70;;;14.00;;
6723;SDS011;3399;52.530;13.304;2022-10-14T09:08:34;18.77;;;14.50;;
6723;SDS011;3399;52.530;13.304;2022-10-14T09:11:05;17.70;;;13.10;;
6723;SDS011;3399;52.530;13.304;2022-10-14T09:13:37;17.43;;;14.63;;
6723;SDS011;3399;52.530;13.304;2022-10-14T09:16:06;19.47;;;14.57;;
6723;SDS011;3399;52.530;13.304;2022-10-14T09:18:40;17.00;;;14.13;;
6723;SDS011;3399;52.530;13.304;2022-10-14T09:21:21;14.30;;;12.43;;
6723;SDS011;3399;52.530;13.304;2022-10-14T09:24:10;13.33;;;11.57;;
6723;SDS011;3399;52.530;13.304;2022-10-14T09:26:38;17.20;;;12.47;;
6723;SDS011;3399;52.530;13.304;2022-10-14T09:29:18;14.20;;;12.70;;
6723;SDS011;3399;52.530;13.304;2022-10-14T09:31:45;17.17;;;12.50;;
6723;SDS011;3399;52.530;13.304;2022-10-14T09:34:16;14.17;;;11.90;;
6723;SDS011;3399;52.530;13.304;2022-10-14T09:36:49;13.97;;;11.93;;
6723;SDS011;3399;52.530;13.304;2022-10-14T09:39:17;15.70;;;12.27;;
6723;SDS011;3399;52.530;13.304;2022-10-14T09:41:42;13.43;;;11.00;;
6723;SDS011;3399;52.530;13.304;2022-10-14T09:44:20;14.77;;;11.80;;
6723;SDS011;3399;52.530;13.304;2022-10-14T09:46:54;15.87;;;11.43;;
6723;SDS011;3399;52.530;13.304;2022-10-14T09:49:25;14.07;;;11.20;;
6723;SDS011;3399;52.530;13.304;2022-10-14T09:51:56;16.37;;;11.60;;
6723;SDS011;3399;52.530;13.304;2022-10-14T09:54:23;16.13;;;11.43;;
6723;SDS011;3399;52.530;13.304;2022-10-14T09:57:02;16.50;;;13.30;;
6723;SDS011;3399;52.530;13.304;2022-10-14T09:59:31;16.90;;;12.10;;
6723;SDS011;3399;52.530;13.304;2022-10-14T10:02:00;13.50;;;12.10;;
6723;SDS011;3399;52.530;13.304;2022-10-14T10:07:02;17.43;;;12.17;;
6723;SDS011;3399;52.530;13.304;2022-10-14T10:09:30;15.77;;;11.83;;
6723;SDS011;3399;52.530;13.304;2022-10-14T10:11:56;16.33;;;13.27;;
6723;SDS011;3399;52.530;13.304;2022-10-14T10:14:28;15.90;;;13.30;;
6723;SDS011;3399;52.530;13.304;2022-10-14T10:19:31;15.50;;;12.40;;
6723;SDS011;3399;52.530;13.304;2022-10-14T10:24:43;17.37;;;12.77;;
6723;SDS011;3399;52.530;13.304;2022-10-14T10:27:26;14.43;;;12.60;;
6723;SDS011;3399;52.530;13.304;2022-10-14T10:29:53;13.80;;;12.30;;
6723;SDS011;3399;52.530;13.304;2022-10-14T10:35:00;19.10;;;12.10;;
6723;SDS011;3399;52.530;13.304;2022-10-14T10:37:31;16.63;;;12.63;;
6723;SDS011;3399;52.530;13.304;2022-10-14T10:43:40;18.33;;;14.17;;
6723;SDS011;3399;52.530;13.304;2022-10-14T10:46:34;16.50;;;12.53;;
6723;SDS011;3399;52.530;13.304;2022-10-14T10:51:39;16.47;;;12.37;;
6723;SDS011;3399;52.530;13.304;2022-10-14T10:56:52;15.33;;;12.80;;
6723;SDS011;3399;52.530;13.304;2022-10-14T11:05:38;17.37;;;12.83;;
6723;SDS011;3399;52.530;13.304;2022-10-14T11:11:30;16.70;;;13.03;;
6723;SDS011;3399;52.530;13.304;2022-10-14T11:14:32;15.30;;;13.67;;
6723;SDS011;3399;52.530;13.304;2022-10-14T11:17:13;14.70;;;11.50;;
6723;SDS011;3399;52.530;13.304;2022-10-14T11:19:49;15.53;;;12.73;;
6723;SDS011;3399;52.530;13.304;2022-10-14T11:28:36;16.90;;;13.13;;
6723;SDS011;3399;52.530;13.304;2022-10-14T11:31:22;17.93;;;12.53;;
6723;SDS011;3399;52.530;13.304;2022-10-14T11:34:07;13.20;;;11.90;;
6723;SDS011;3399;52.530;13.304;2022-10-14T11:37:13;14.10;;;11.40;;
6723;SDS011;3399;52.530;13.304;2022-10-14T11:42:20;13.97;;;11.23;;
6723;SDS011;3399;52.530;13.304;2022-10-14T11:47:59;14.13;;;11.10;;
6723;SDS011;3399;52.530;13.304;2022-10-14T11:50:50;12.97;;;10.57;;
6723;SDS011;3399;52.530;13.304;2022-10-14T11:53:23;12.47;;;10.43;;
6723;SDS011;3399;52.530;13.304;2022-10-14T11:56:27;13.77;;;9.93;;
6723;SDS011;3399;52.530;13.304;2022-10-14T12:01:45;14.20;;;10.33;;
6723;SDS011;3399;52.530;13.304;2022-10-14T12:04:16;11.07;;;9.93;;
6723;SDS011;3399;52.530;13.304;2022-10-14T12:06:50;14.27;;;9.10;;
6723;SDS011;3399;52.530;13.304;2022-10-14T12:09:26;12.80;;;10.10;;
6723;SDS011;3399;52.530;13.304;2022-10-14T12:12:16;10.83;;;9.73;;
6723;SDS011;3399;52.530;13.304;2022-10-14T12:14:52;11.27;;;10.10;;
6723;SDS011;3399;52.530;13.304;2022-10-14T12:17:30;14.00;;;10.10;;
6723;SDS011;3399;52.530;13.304;2022-10-14T12:20:13;14.27;;;11.33;;
6723;SDS011;3399;52.530;13.304;2022-10-14T12:23:02;12.97;;;11.17;;
6723;SDS011;3399;52.530;13.304;2022-10-14T12:25:32;11.63;;;10.43;;
6723;SDS011;3399;52.530;13.304;2022-10-14T12:28:19;15.67;;;11.20;;
6723;SDS011;3399;52.530;13.304;2022-10-14T12:30:45;16.93;;;12.97;;
6723;SDS011;3399;52.530;13.304;2022-10-14T12:33:12;13.00;;;9.57;;
6723;SDS011;3399;52.530;13.304;2022-10-14T12:35:48;13.00;;;10.10;;
6723;SDS011;3399;52.530;13.304;2022-10-14T12:38:16;13.53;;;10.70;;
6723;SDS011;3399;52.530;13.304;2022-10-14T12:40:42;13.17;;;10.57;;
6723;SDS011;3399;52.530;13.304;2022-10-14T12:43:15;10.73;;;9.63;;
6723;SDS011;3399;52.530;13.304;2022-10-14T12:45:47;15.20;;;9.47;;
6723;SDS011;3399;52.530;13.304;2022-10-14T12:48:32;14.40;;;10.77;;
6723;SDS011;3399;52.530;13.304;2022-10-14T12:51:10;13.30;;;10.17;;
6723;SDS011;3399;52.530;13.304;2022-10-14T12:53:47;13.77;;;9.40;;
6723;SDS011;3399;52.530;13.304;2022-10-14T12:56:38;10.33;;;9.30;;
6723;SDS011;3399;52.530;13.304;2022-10-14T12:59:15;12.63;;;9.10;;
6723;SDS011;3399;52.530;13.304;2022-10-14T13:01:56;11.30;;;9.57;;
6723;SDS011;3399;52.530;13.304;2022-10-14T13:04:25;12.90;;;9.13;;
6723;SDS011;3399;52.530;13.304;2022-10-14T13:09:44;10.30;;;9.20;;
6723;SDS011;3399;52.530;13.304;2022-10-14T13:12:36;9.73;;;8.33;;
6723;SDS011;3399;52.530;13.304;2022-10-14T13:14:56;8.57;;;7.67;;
6723;SDS011;3399;52.530;13.304;2022-10-14T13:20:46;9.47;;;8.20;;
6723;SDS011;3399;52.530;13.304;2022-10-14T13:26:05;9.23;;;8.07;;
6723;SDS011;3399;52.530;13.304;2022-10-14T13:28:34;9.45;;;7.72;;
6723;SDS011;3399;52.530;13.304;2022-10-14T13:31:11;8.13;;;7.10;;
6723;SDS011;3399;52.530;13.304;2022-10-14T13:40:16;11.27;;;7.60;;
6723;SDS011;3399;52.530;13.304;2022-10-14T13:42:43;8.27;;;7.43;;
6723;SDS011;3399;52.530;13.304;2022-10-14T13:45:12;8.77;;;7.80;;
6723;SDS011;3399;52.530;13.304;2022-10-14T13:47:40;8.30;;;7.50;;
6723;SDS011;3399;52.530;13.304;2022-10-14T13:50:12;8.20;;;6.83;;
6723;SDS011;3399;52.530;13.304;2022-10-14T13:52:41;7.33;;;6.63;;
6723;SDS011;3399;52.530;13.304;2022-10-14T13:55:18;8.10;;;6.73;;
6723;SDS011;3399;52.530;13.304;2022-10-14T14:00:35;7.20;;;5.87;;
6723;SDS011;3399;52.530;13.304;2022-10-14T14:03:08;9.20;;;7.33;;
6723;SDS011;3399;52.530;13.304;2022-10-14T14:05:53;6.87;;;6.23;;
6723;SDS011;3399;52.530;13.304;2022-10-14T14:08:22;7.47;;;6.60;;
6723;SDS011;3399;52.530;13.304;2022-10-14T14:10:53;9.43;;;6.77;;
6723;SDS011;3399;52.530;13.304;2022-10-14T14:13:27;7.47;;;6.77;;
6723;SDS011;3399;52.530;13.304;2022-10-14T14:15:55;7.40;;;6.53;;
6723;SDS011;3399;52.530;13.304;2022-10-14T14:18:26;7.60;;;6.83;;
6723;SDS011;3399;52.530;13.304;2022-10-14T14:20:59;8.20;;;6.07;;
6723;SDS011;3399;52.530;13.304;2022-10-14T14:23:25;8.80;;;6.33;;
6723;SDS011;3399;52.530;13.304;2022-10-14T14:25:52;7.80;;;6.73;;
6723;SDS011;3399;52.530;13.304;2022-10-14T14:28:18;6.77;;;6.00;;
6723;SDS011;3399;52.530;13.304;2022-10-14T14:30:50;8.13;;;6.00;;
6723;SDS011;3399;52.530;13.304;2022-10-14T14:33:18;6.60;;;6.00;;
6723;SDS011;3399;52.530;13.304;2022-10-14T14:35:54;8.60;;;6.60;;
6723;SDS011;3399;52.530;13.304;2022-10-14T14:38:34;6.73;;;6.00;;
6723;SDS011;3399;52.530;13.304;2022-10-14T14:43:28;9.77;;;6.53;;
6723;SDS011;3399;52.530;13.304;2022-10-14T14:45:54;8.03;;;6.13;;
6723;SDS011;3399;52.530;13.304;2022-10-14T14:48:21;6.60;;;5.90;;
6723;SDS011;3399;52.530;13.304;2022-10-14T14:50:46;7.27;;;6.10;;
6723;SDS011;3399;52.530;13.304;2022-10-14T14:53:14;6.37;;;5.67;;
6723;SDS011;3399;52.530;13.304;2022-10-14T14:55:42;8.20;;;6.77;;
6723;SDS011;3399;52.530;13.304;2022-10-14T15:00:55;7.53;;;6.20;;
6723;SDS011;3399;52.530;13.304;2022-10-14T15:03:22;8.77;;;6.63;;
6723;SDS011;3399;52.530;13.304;2022-10-14T15:05:58;7.63;;;6.83;;
6723;SDS011;3399;52.530;13.304;2022-10-14T15:08:27;6.87;;;6.27;;
6723;SDS011;3399;52.530;13.304;2022-10-14T15:11:00;9.80;;;7.50;;
6723;SDS011;3399;52.530;13.304;2022-10-14T15:15:56;8.33;;;6.77;;
6723;SDS011;3399;52.530;13.304;2022-10-14T15:18:23;8.47;;;6.97;;
6723;SDS011;3399;52.530;13.304;2022-10-14T15:31:31;9.03;;;7.03;;
6723;SDS011;3399;52.530;13.304;2022-10-14T15:33:58;6.97;;;6.20;;
6723;SDS011;3399;52.530;13.304;2022-10-14T15:36:24;7.37;;;6.63;;
6723;SDS011;3399;52.530;13.304;2022-10-14T15:38:54;8.17;;;6.73;;
6723;SDS011;3399;52.530;13.304;2022-10-14T15:41:22;6.93;;;6.23;;
6723;SDS011;3399;52.530;13.304;2022-10-14T15:43:48;8.93;;;6.47;;
6723;SDS011;3399;52.530;13.304;2022-10-14T15:46:13;6.20;;;5.60;;
6723;SDS011;3399;52.530;13.304;2022-10-14T15:48:58;8.53;;;5.90;;
6723;SDS011;3399;52.530;13.304;2022-10-14T15:51:27;5.73;;;5.17;;
6723;SDS011;3399;52.530;13.304;2022-10-14T15:53:54;9.73;;;6.13;;
6723;SDS011;3399;52.530;13.304;2022-10-14T15:56:21;8.40;;;5.87;;
6723;SDS011;3399;52.530;13.304;2022-10-14T15:58:46;9.27;;;6.03;;
6723;SDS011;3399;52.530;13.304;2022-10-14T16:01:14;7.20;;;6.30;;
6723;SDS011;3399;52.530;13.304;2022-10-14T16:03:44;7.50;;;6.77;;
6723;SDS011;3399;52.530;13.304;2022-10-14T16:06:10;7.60;;;6.80;;
6723;SDS011;3399;52.530;13.304;2022-10-14T16:08:36;7.73;;;6.30;;
6723;SDS011;3399;52.530;13.304;2022-10-14T16:11:02;9.77;;;7.13;;
6723;SDS011;3399;52.530;13.304;2022-10-14T16:13:28;6.63;;;5.83;;
6723;SDS011;3399;52.530;13.304;2022-10-14T16:15:54;7.57;;;6.03;;
6723;SDS011;3399;52.530;13.304;2022-10-14T16:18:23;7.53;;;6.53;;
6723;SDS011;3399;52.530;13.304;2022-10-14T16:20:49;7.63;;;6.00;;
6723;SDS011;3399;52.530;13.304;2022-10-14T16:23:16;8.97;;;7.23;;
6723;SDS011;3399;52.530;13.304;2022-10-14T16:25:44;6.77;;;5.67;;
6723;SDS011;3399;52.530;13.304;2022-10-14T16:28:13;7.50;;;6.70;;
6723;SDS011;3399;52.530;13.304;2022-10-14T16:30:40;7.00;;;6.30;;
6723;SDS011;3399;52.530;13.304;2022-10-14T16:33:12;7.70;;;6.90;;
6723;SDS011;3399;52.530;13.304;2022-10-14T16:35:39;8.17;;;6.20;;
6723;SDS011;3399;52.530;13.304;2022-10-14T16:38:06;8.57;;;6.43;;
6723;SDS011;3399;52.530;13.304;2022-10-14T16:40:33;6.67;;;5.80;;
6723;SDS011;3399;52.530;13.304;2022-10-14T16:42:58;7.97;;;6.30;;
6723;SDS011;3399;52.530;13.304;2022-10-14T16:45:24;9.73;;;6.93;;